sensor_id;sensor_type;location;lat;lon;timestamp;P1;durP1;ratioP1;P2;durP2;ratioP2
29776;SDS011;16677;52.224;7.484;2022-10-16T00:01:29;6.00;;;4.87;;
29776;SDS011;16677;52.224;7.484;2022-10-16T00:03:57;7.27;;;5.37;;
29776;SDS011;16677;52.224;7.484;2022-10-16T00:06:25;8.33;;;5.13;;
29776;SDS011;16677;52.224;7.484;2022-10-16T00:08:54;7.77;;;4.70;;
29776;SDS011;16677;52.224;7.484;2022-10-16T00:11:22;6.57;;;4.87;;
29776;SDS011;16677;52.224;7.484;2022-10-16T00:13:51;7.07;;;5.60;;
29776;SDS011;16677;52.224;7.484;2022-10-16T00:16:22;9.30;;;5.80;;
29776;SDS011;16677;52.224;7.484;2022-10-16T00:18:56;11.37;;;6.73;;
29776;SDS011;16677;52.224;7.484;2022-10-16T00:21:28;8.07;;;7.27;;
29776;SDS011;16677;52.224;7.484;2022-10-16T00:26:38;14.60;;;7.77;;
29776;SDS011;16677;52.224;7.484;2022-10-16T00:29:06;12.13;;;8.17;;
29776;SDS011;16677;52.224;7.484;2022-10-16T00:31:34;12.57;;;8.40;;
29776;SDS011;16677;52.224;7.484;2022-10-16T00:34:01;10.30;;;9.17;;
29776;SDS011;16677;52.224;7.484;2022-10-16T00:36:28;14.50;;;9.70;;
29776;SDS011;16677;52.224;7.484;2022-10-16T00:38:56;11.53;;;9.80;;
29776;SDS011;16677;52.224;7.484;2022-10-16T00:41:25;12.53;;;10.27;;
29776;SDS011;16677;52.224;7.484;2022-10-16T00:44:00;14.50;;;11.07;;
29776;SDS011;16677;52.224;7.484;2022-10-16T00:46:40;18.93;;;13.00;;
29776;SDS011;16677;52.224;7.484;2022-10-16T00:49:09;17.10;;;13.10;;
29776;SDS011;16677;52.224;7.484;2022-10-16T00:51:39;21.03;;;14.43;;
29776;SDS011;16677;52.224;7.484;2022-10-16T00:54:29;25.33;;;16.47;;
29776;SDS011;16677;52.224;7.484;2022-10-16T00:56:59;21.03;;;15.63;;
29776;SDS011;16677;52.224;7.484;2022-10-16T00:59:30;25.80;;;16.40;;
29776;SDS011;16677;52.224;7.484;2022-10-16T01:02:03;26.90;;;16.43;;
29776;SDS011;16677;52.224;7.484;2022-10-16T01:04:34;26.63;;;17.47;;
29776;SDS011;16677;52.224;7.484;2022-10-16T01:07:12;24.13;;;17.37;;
29776;SDS011;16677;52.224;7.484;2022-10-16T01:12:45;19.67;;;15.43;;
29776;SDS011;16677;52.224;7.484;2022-10-16T01:15:29;22.07;;;15.40;;
29776;SDS011;16677;52.224;7.484;2022-10-16T01:18:14;24.13;;;15.83;;
29776;SDS011;16677;52.224;7.484;2022-10-16T01:20:53;18.73;;;15.07;;
29776;SDS011;16677;52.224;7.484;2022-10-16T01:26:14;17.63;;;13.83;;
29776;SDS011;16677;52.224;7.484;2022-10-16T01:31:27;19.00;;;14.93;;
29776;SDS011;16677;52.224;7.484;2022-10-16T01:34:00;19.30;;;14.57;;
29776;SDS011;16677;52.224;7.484;2022-10-16T01:36:42;22.40;;;16.27;;
29776;SDS011;16677;52.224;7.484;2022-10-16T01:39:18;26.40;;;17.20;;
29776;SDS011;16677;52.224;7.484;2022-10-16T01:41:51;24.47;;;17.63;;
29776;SDS011;16677;52.224;7.484;2022-10-16T01:44:52;20.90;;;16.37;;
29776;SDS011;16677;52.224;7.484;2022-10-16T01:47:22;28.10;;;18.40;;
29776;SDS011;16677;52.224;7.484;2022-10-16T01:49:52;26.27;;;19.30;;
29776;SDS011;16677;52.224;7.484;2022-10-16T01:52:21;25.13;;;18.50;;
29776;SDS011;16677;52.224;7.484;2022-10-16T01:54:52;24.27;;;18.97;;
29776;SDS011;16677;52.224;7.484;2022-10-16T01:57:21;28.40;;;19.00;;
29776;SDS011;16677;52.224;7.484;2022-10-16T01:59:52;31.50;;;20.00;;
29776;SDS011;16677;52.224;7.484;2022-10-16T02:02:24;26.50;;;19.53;;
29776;SDS011;16677;52.224;7.484;2022-10-16T02:04:57;28.43;;;20.67;;
29776;SDS011;16677;52.224;7.484;2022-10-16T02:07:28;28.13;;;21.83;;
29776;SDS011;16677;52.224;7.484;2022-10-16T02:09:56;25.97;;;21.07;;
29776;SDS011;16677;52.224;7.484;2022-10-16T02:12:28;27.30;;;21.40;;
29776;SDS011;16677;52.224;7.484;2022-10-16T02:14:57;31.43;;;21.97;;
29776;SDS011;16677;52.224;7.484;2022-10-16T02:17:25;29.23;;;21.90;;
29776;SDS011;16677;52.224;7.484;2022-10-16T02:19:52;31.20;;;23.00;;
29776;SDS011;16677;52.224;7.484;2022-10-16T02:22:22;33.47;;;23.20;;
29776;SDS011;16677;52.224;7.484;2022-10-16T02:25:03;31.57;;;23.27;;
29776;SDS011;16677;52.224;7.484;2022-10-16T02:30:07;32.60;;;24.90;;
29776;SDS011;16677;52.224;7.484;2022-10-16T02:32:42;32.33;;;24.70;;
29776;SDS011;16677;52.224;7.484;2022-10-16T02:35:13;35.30;;;25.63;;
29776;SDS011;16677;52.224;7.484;2022-10-16T02:37:45;33.40;;;25.30;;
29776;SDS011;16677;52.224;7.484;2022-10-16T02:40:14;35.87;;;26.13;;
29776;SDS011;16677;52.224;7.484;2022-10-16T02:42:49;36.03;;;26.93;;
29776;SDS011;16677;52.224;7.484;2022-10-16T02:45:19;34.67;;;26.33;;
29776;SDS011;16677;52.224;7.484;2022-10-16T02:47:47;37.77;;;26.87;;
29776;SDS011;16677;52.224;7.484;2022-10-16T02:50:15;31.80;;;25.73;;
29776;SDS011;16677;52.224;7.484;2022-10-16T02:52:42;37.70;;;27.67;;
29776;SDS011;16677;52.224;7.484;2022-10-16T02:55:09;34.30;;;25.60;;
29776;SDS011;16677;52.224;7.484;2022-10-16T02:57:36;38.27;;;27.00;;
29776;SDS011;16677;52.224;7.484;2022-10-16T03:00:04;37.80;;;27.37;;
29776;SDS011;16677;52.224;7.484;2022-10-16T03:02:32;33.57;;;26.53;;
29776;SDS011;16677;52.224;7.484;2022-10-16T03:04:59;34.00;;;26.10;;
29776;SDS011;16677;52.224;7.484;2022-10-16T03:07:26;36.03;;;27.07;;
29776;SDS011;16677;52.224;7.484;2022-10-16T03:09:54;36.80;;;27.43;;
29776;SDS011;16677;52.224;7.484;2022-10-16T03:12:21;33.37;;;25.20;;
29776;SDS011;16677;52.224;7.484;2022-10-16T03:14:48;34.50;;;29.50;;
29776;SDS011;16677;52.224;7.484;2022-10-16T03:17:15;33.47;;;25.67;;
29776;SDS011;16677;52.224;7.484;2022-10-16T03:19:43;30.37;;;24.43;;
29776;SDS011;16677;52.224;7.484;2022-10-16T03:22:10;31.37;;;23.67;;
29776;SDS011;16677;52.224;7.484;2022-10-16T03:24:37;31.33;;;23.43;;
29776;SDS011;16677;52.224;7.484;2022-10-16T03:27:04;32.10;;;24.13;;
29776;SDS011;16677;52.224;7.484;2022-10-16T03:29:31;28.83;;;22.87;;
29776;SDS011;16677;52.224;7.484;2022-10-16T03:31:59;29.13;;;22.50;;
29776;SDS011;16677;52.224;7.484;2022-10-16T03:34:26;26.80;;;22.57;;
29776;SDS011;16677;52.224;7.484;2022-10-16T03:36:54;29.10;;;22.93;;
29776;SDS011;16677;52.224;7.484;2022-10-16T03:39:21;29.67;;;22.00;;
29776;SDS011;16677;52.224;7.484;2022-10-16T03:41:47;29.77;;;22.00;;
29776;SDS011;16677;52.224;7.484;2022-10-16T03:44:14;31.10;;;22.00;;
29776;SDS011;16677;52.224;7.484;2022-10-16T03:46:41;32.60;;;21.83;;
29776;SDS011;16677;52.224;7.484;2022-10-16T03:49:08;22.93;;;19.20;;
29776;SDS011;16677;52.224;7.484;2022-10-16T03:51:35;27.73;;;19.87;;
29776;SDS011;16677;52.224;7.484;2022-10-16T03:54:02;26.27;;;19.80;;
29776;SDS011;16677;52.224;7.484;2022-10-16T03:56:30;23.20;;;19.60;;
29776;SDS011;16677;52.224;7.484;2022-10-16T03:58:56;22.30;;;19.03;;
29776;SDS011;16677;52.224;7.484;2022-10-16T04:01:24;21.77;;;18.40;;
29776;SDS011;16677;52.224;7.484;2022-10-16T04:03:51;26.73;;;19.83;;
29776;SDS011;16677;52.224;7.484;2022-10-16T04:06:18;22.70;;;18.67;;
29776;SDS011;16677;52.224;7.484;2022-10-16T04:08:45;25.23;;;18.33;;
29776;SDS011;16677;52.224;7.484;2022-10-16T04:11:12;28.57;;;19.13;;
29776;SDS011;16677;52.224;7.484;2022-10-16T04:13:39;21.83;;;17.90;;
29776;SDS011;16677;52.224;7.484;2022-10-16T04:16:06;25.27;;;17.73;;
29776;SDS011;16677;52.224;7.484;2022-10-16T04:18:34;24.13;;;17.67;;
29776;SDS011;16677;52.224;7.484;2022-10-16T04:21:05;24.47;;;18.97;;
29776;SDS011;16677;52.224;7.484;2022-10-16T04:23:32;23.23;;;17.97;;
29776;SDS011;16677;52.224;7.484;2022-10-16T04:26:00;22.30;;;16.97;;
29776;SDS011;16677;52.224;7.484;2022-10-16T04:28:27;21.50;;;17.07;;
29776;SDS011;16677;52.224;7.484;2022-10-16T04:30:54;22.00;;;17.63;;
29776;SDS011;16677;52.224;7.484;2022-10-16T04:33:22;20.13;;;17.33;;
29776;SDS011;16677;52.224;7.484;2022-10-16T04:35:57;22.87;;;17.20;;
29776;SDS011;16677;52.224;7.484;2022-10-16T04:38:25;23.87;;;18.60;;
29776;SDS011;16677;52.224;7.484;2022-10-16T04:40:52;24.27;;;17.03;;
29776;SDS011;16677;52.224;7.484;2022-10-16T04:43:23;20.53;;;16.40;;
29776;SDS011;16677;52.224;7.484;2022-10-16T04:45:50;20.60;;;16.77;;
29776;SDS011;16677;52.224;7.484;2022-10-16T04:48:18;22.43;;;16.37;;
29776;SDS011;16677;52.224;7.484;2022-10-16T04:50:45;22.93;;;16.83;;
29776;SDS011;16677;52.224;7.484;2022-10-16T04:53:20;18.57;;;15.97;;
29776;SDS011;16677;52.224;7.484;2022-10-16T04:55:47;20.20;;;16.77;;
29776;SDS011;16677;52.224;7.484;2022-10-16T04:58:14;22.20;;;17.67;;
29776;SDS011;16677;52.224;7.484;2022-10-16T05:00:41;18.30;;;15.60;;
29776;SDS011;16677;52.224;7.484;2022-10-16T05:03:08;23.30;;;17.07;;
29776;SDS011;16677;52.224;7.484;2022-10-16T05:05:35;19.27;;;15.60;;
29776;SDS011;16677;52.224;7.484;2022-10-16T05:08:03;21.50;;;16.23;;
29776;SDS011;16677;52.224;7.484;2022-10-16T05:10:30;20.27;;;16.40;;
29776;SDS011;16677;52.224;7.484;2022-10-16T05:12:57;19.80;;;15.07;;
29776;SDS011;16677;52.224;7.484;2022-10-16T05:15:25;19.03;;;15.77;;
29776;SDS011;16677;52.224;7.484;2022-10-16T05:17:53;22.43;;;16.30;;
29776;SDS011;16677;52.224;7.484;2022-10-16T05:20:21;20.93;;;15.83;;
29776;SDS011;16677;52.224;7.484;2022-10-16T05:22:49;23.53;;;16.27;;
29776;SDS011;16677;52.224;7.484;2022-10-16T05:25:16;21.53;;;15.43;;
29776;SDS011;16677;52.224;7.484;2022-10-16T05:27:43;21.90;;;16.00;;
29776;SDS011;16677;52.224;7.484;2022-10-16T05:30:13;20.13;;;16.37;;
29776;SDS011;16677;52.224;7.484;2022-10-16T05:32:40;22.23;;;16.33;;
29776;SDS011;16677;52.224;7.484;2022-10-16T05:35:12;19.27;;;15.23;;
29776;SDS011;16677;52.224;7.484;2022-10-16T05:37:40;24.63;;;17.67;;
29776;SDS011;16677;52.224;7.484;2022-10-16T05:40:08;20.70;;;16.57;;
29776;SDS011;16677;52.224;7.484;2022-10-16T05:42:36;20.47;;;15.90;;
29776;SDS011;16677;52.224;7.484;2022-10-16T05:45:04;18.77;;;15.17;;
29776;SDS011;16677;52.224;7.484;2022-10-16T05:47:36;20.73;;;15.63;;
29776;SDS011;16677;52.224;7.484;2022-10-16T05:50:03;19.90;;;16.10;;
29776;SDS011;16677;52.224;7.484;2022-10-16T05:52:30;19.43;;;16.40;;
29776;SDS011;16677;52.224;7.484;2022-10-16T05:55:00;23.03;;;16.87;;
29776;SDS011;16677;52.224;7.484;2022-10-16T05:57:28;20.97;;;16.17;;
29776;SDS011;16677;52.224;7.484;2022-10-16T05:59:56;19.73;;;15.97;;
29776;SDS011;16677;52.224;7.484;2022-10-16T06:02:23;18.20;;;16.10;;
29776;SDS011;16677;52.224;7.484;2022-10-16T06:04:51;19.20;;;16.20;;
29776;SDS011;16677;52.224;7.484;2022-10-16T06:07:21;20.17;;;15.73;;
29776;SDS011;16677;52.224;7.484;2022-10-16T06:09:50;19.60;;;14.83;;
29776;SDS011;16677;52.224;7.484;2022-10-16T06:12:18;17.77;;;13.00;;
29776;SDS011;16677;52.224;7.484;2022-10-16T06:14:46;16.37;;;13.83;;
29776;SDS011;16677;52.224;7.484;2022-10-16T06:17:13;16.53;;;12.70;;
29776;SDS011;16677;52.224;7.484;2022-10-16T06:19:41;18.13;;;13.10;;
29776;SDS011;16677;52.224;7.484;2022-10-16T06:22:08;15.53;;;13.13;;
29776;SDS011;16677;52.224;7.484;2022-10-16T06:24:37;16.53;;;11.57;;
29776;SDS011;16677;52.224;7.484;2022-10-16T06:27:10;15.83;;;11.97;;
29776;SDS011;16677;52.224;7.484;2022-10-16T06:29:39;15.13;;;11.27;;
29776;SDS011;16677;52.224;7.484;2022-10-16T06:32:07;17.57;;;10.67;;
29776;SDS011;16677;52.224;7.484;2022-10-16T06:34:36;13.03;;;11.23;;
29776;SDS011;16677;52.224;7.484;2022-10-16T06:37:09;11.33;;;9.13;;
29776;SDS011;16677;52.224;7.484;2022-10-16T06:39:37;11.30;;;9.77;;
29776;SDS011;16677;52.224;7.484;2022-10-16T06:42:05;10.30;;;8.87;;
29776;SDS011;16677;52.224;7.484;2022-10-16T06:44:33;10.80;;;8.27;;
29776;SDS011;16677;52.224;7.484;2022-10-16T06:47:00;9.80;;;7.73;;
29776;SDS011;16677;52.224;7.484;2022-10-16T06:49:28;8.87;;;7.93;;
29776;SDS011;16677;52.224;7.484;2022-10-16T06:51:55;9.93;;;6.95;;
29776;SDS011;16677;52.224;7.484;2022-10-16T06:54:22;8.67;;;6.13;;
29776;SDS011;16677;52.224;7.484;2022-10-16T06:56:53;6.20;;;5.60;;
29776;SDS011;16677;52.224;7.484;2022-10-16T06:59:21;8.20;;;5.67;;
29776;SDS011;16677;52.224;7.484;2022-10-16T07:01:48;7.37;;;5.37;;
29776;SDS011;16677;52.224;7.484;2022-10-16T07:04:18;5.03;;;4.53;;
29776;SDS011;16677;52.224;7.484;2022-10-16T07:06:47;6.07;;;4.87;;
29776;SDS011;16677;52.224;7.484;2022-10-16T07:09:14;7.57;;;4.40;;
29776;SDS011;16677;52.224;7.484;2022-10-16T07:11:41;5.67;;;4.70;;
29776;SDS011;16677;52.224;7.484;2022-10-16T07:14:12;7.30;;;4.27;;
29776;SDS011;16677;52.224;7.484;2022-10-16T07:16:44;6.83;;;4.47;;
29776;SDS011;16677;52.224;7.484;2022-10-16T07:19:11;6.77;;;4.43;;
29776;SDS011;16677;52.224;7.484;2022-10-16T07:21:41;5.87;;;4.17;;
29776;SDS011;16677;52.224;7.484;2022-10-16T07:24:12;4.60;;;3.80;;
29776;SDS011;16677;52.224;7.484;2022-10-16T07:26:43;5.37;;;3.57;;
29776;SDS011;16677;52.224;7.484;2022-10-16T07:29:15;4.00;;;3.30;;
29776;SDS011;16677;52.224;7.484;2022-10-16T07:31:43;3.95;;;3.22;;
29776;SDS011;16677;52.224;7.484;2022-10-16T07:34:11;4.68;;;2.70;;
29776;SDS011;16677;52.224;7.484;2022-10-16T07:36:41;4.35;;;2.88;;
29776;SDS011;16677;52.224;7.484;2022-10-16T07:39:08;3.58;;;2.58;;
29776;SDS011;16677;52.224;7.484;2022-10-16T07:41:35;3.78;;;2.83;;
29776;SDS011;16677;52.224;7.484;2022-10-16T07:44:03;4.25;;;2.50;;
29776;SDS011;16677;52.224;7.484;2022-10-16T07:46:31;5.00;;;2.90;;
29776;SDS011;16677;52.224;7.484;2022-10-16T07:48:59;3.40;;;2.70;;
29776;SDS011;16677;52.224;7.484;2022-10-16T07:51:26;5.80;;;2.80;;
29776;SDS011;16677;52.224;7.484;2022-10-16T07:53:54;4.23;;;2.93;;
29776;SDS011;16677;52.224;7.484;2022-10-16T07:56:21;4.80;;;2.60;;
29776;SDS011;16677;52.224;7.484;2022-10-16T07:58:49;2.60;;;2.40;;
29776;SDS011;16677;52.224;7.484;2022-10-16T08:01:17;3.73;;;2.63;;
29776;SDS011;16677;52.224;7.484;2022-10-16T08:03:46;5.63;;;2.20;;
29776;SDS011;16677;52.224;7.484;2022-10-16T08:06:15;9.27;;;2.30;;
29776;SDS011;16677;52.224;7.484;2022-10-16T08:08:48;5.40;;;2.17;;
29776;SDS011;16677;52.224;7.484;2022-10-16T08:11:16;5.80;;;2.40;;
29776;SDS011;16677;52.224;7.484;2022-10-16T08:13:46;3.23;;;2.20;;
29776;SDS011;16677;52.224;7.484;2022-10-16T08:16:13;3.00;;;2.50;;
29776;SDS011;16677;52.224;7.484;2022-10-16T08:18:40;5.00;;;2.47;;
29776;SDS011;16677;52.224;7.484;2022-10-16T08:21:12;5.03;;;1.87;;
29776;SDS011;16677;52.224;7.484;2022-10-16T08:23:46;4.97;;;2.20;;
29776;SDS011;16677;52.224;7.484;2022-10-16T08:26:22;3.03;;;2.10;;
29776;SDS011;16677;52.224;7.484;2022-10-16T08:28:49;4.07;;;2.17;;
29776;SDS011;16677;52.224;7.484;2022-10-16T08:31:18;5.00;;;2.30;;
29776;SDS011;16677;52.224;7.484;2022-10-16T08:33:45;2.67;;;1.70;;
29776;SDS011;16677;52.224;7.484;2022-10-16T08:36:13;4.40;;;1.83;;
29776;SDS011;16677;52.224;7.484;2022-10-16T08:38:42;3.83;;;2.17;;
29776;SDS011;16677;52.224;7.484;2022-10-16T08:49:32;4.57;;;2.50;;
29776;SDS011;16677;52.224;7.484;2022-10-16T08:52:00;3.30;;;2.03;;
29776;SDS011;16677;52.224;7.484;2022-10-16T08:54:31;6.97;;;2.33;;
29776;SDS011;16677;52.224;7.484;2022-10-16T08:57:17;2.30;;;2.10;;
29776;SDS011;16677;52.224;7.484;2022-10-16T08:59:52;5.43;;;2.17;;
29776;SDS011;16677;52.224;7.484;2022-10-16T12:13:34;14.73;;;11.17;;
29776;SDS011;16677;52.224;7.484;2022-10-16T12:18:45;7.57;;;3.00;;
29776;SDS011;16677;52.224;7.484;2022-10-16T12:21:13;8.53;;;2.80;;
29776;SDS011;16677;52.224;7.484;2022-10-16T12:42:33;7.03;;;2.30;;
29776;SDS011;16677;52.224;7.484;2022-10-16T12:45:12;8.47;;;2.33;;
29776;SDS011;16677;52.224;7.484;2022-10-16T12:48:17;5.57;;;2.33;;
29776;SDS011;16677;52.224;7.484;2022-10-16T12:51:08;5.43;;;2.20;;
29776;SDS011;16677;52.224;7.484;2022-10-16T12:53:37;5.20;;;1.90;;
29776;SDS011;16677;52.224;7.484;2022-10-16T12:58:57;4.90;;;2.10;;
29776;SDS011;16677;52.224;7.484;2022-10-16T13:01:34;6.40;;;2.00;;
29776;SDS011;16677;52.224;7.484;2022-10-16T13:04:23;5.40;;;2.00;;
29776;SDS011;16677;52.224;7.484;2022-10-16T13:10:26;5.40;;;2.03;;
29776;SDS011;16677;52.224;7.484;2022-10-16T13:21:50;6.70;;;2.17;;
29776;SDS011;16677;52.224;7.484;2022-10-16T13:29:32;6.80;;;2.37;;
29776;SDS011;16677;52.224;7.484;2022-10-16T13:32:00;8.37;;;2.23;;
29776;SDS011;16677;52.224;7.484;2022-10-16T13:35:03;5.93;;;2.10;;
29776;SDS011;16677;52.224;7.484;2022-10-16T13:37:49;7.63;;;2.50;;
29776;SDS011;16677;52.224;7.484;2022-10-16T13:40:23;6.33;;;2.30;;
29776;SDS011;16677;52.224;7.484;2022-10-16T13:42:51;7.83;;;2.50;;
29776;SDS011;16677;52.224;7.484;2022-10-16T13:45:20;6.33;;;2.37;;
29776;SDS011;16677;52.224;7.484;2022-10-16T13:48:02;7.40;;;2.13;;
29776;SDS011;16677;52.224;7.484;2022-10-16T13:50:31;6.33;;;2.03;;
29776;SDS011;16677;52.224;7.484;2022-10-16T13:53:10;8.13;;;2.37;;
29776;SDS011;16677;52.224;7.484;2022-10-16T13:55:44;4.90;;;1.77;;
29776;SDS011;16677;52.224;7.484;2022-10-16T13:58:12;5.73;;;1.70;;
29776;SDS011;16677;52.224;7.484;2022-10-16T14:00:52;8.47;;;2.30;;
29776;SDS011;16677;52.224;7.484;2022-10-16T14:03:24;7.70;;;2.27;;
29776;SDS011;16677;52.224;7.484;2022-10-16T14:05:56;5.17;;;2.10;;
29776;SDS011;16677;52.224;7.484;2022-10-16T14:08:27;5.50;;;1.90;;
29776;SDS011;16677;52.224;7.484;2022-10-16T14:10:57;7.57;;;1.83;;
29776;SDS011;16677;52.224;7.484;2022-10-16T14:13:29;4.30;;;2.07;;
29776;SDS011;16677;52.224;7.484;2022-10-16T14:16:10;6.28;;;2.13;;
29776;SDS011;16677;52.224;7.484;2022-10-16T14:18:44;8.83;;;2.30;;
29776;SDS011;16677;52.224;7.484;2022-10-16T14:21:21;6.80;;;2.30;;
29776;SDS011;16677;52.224;7.484;2022-10-16T14:23:49;5.77;;;2.23;;
29776;SDS011;16677;52.224;7.484;2022-10-16T14:26:17;7.10;;;2.23;;
29776;SDS011;16677;52.224;7.484;2022-10-16T14:28:47;6.57;;;1.90;;
29776;SDS011;16677;52.224;7.484;2022-10-16T14:37:22;8.47;;;2.20;;
29776;SDS011;16677;52.224;7.484;2022-10-16T14:39:54;7.10;;;2.30;;
29776;SDS011;16677;52.224;7.484;2022-10-16T14:42:23;6.00;;;2.20;;
29776;SDS011;16677;52.224;7.484;2022-10-16T14:44:54;5.07;;;1.97;;
29776;SDS011;16677;52.224;7.484;2022-10-16T14:47:23;6.60;;;2.23;;
29776;SDS011;16677;52.224;7.484;2022-10-16T14:49:54;5.13;;;2.10;;
29776;SDS011;16677;52.224;7.484;2022-10-16T14:52:25;6.13;;;2.30;;
29776;SDS011;16677;52.224;7.484;2022-10-16T14:54:55;6.17;;;1.97;;
29776;SDS011;16677;52.224;7.484;2022-10-16T14:57:23;7.17;;;1.90;;
29776;SDS011;16677;52.224;7.484;2022-10-16T14:59:53;5.73;;;2.07;;
29776;SDS011;16677;52.224;7.484;2022-10-16T15:02:22;6.93;;;2.27;;
29776;SDS011;16677;52.224;7.484;2022-10-16T15:05:07;8.00;;;2.10;;
29776;SDS011;16677;52.224;7.484;2022-10-16T15:07:46;6.53;;;1.97;;
29776;SDS011;16677;52.224;7.484;2022-10-16T15:10:13;4.07;;;2.07;;
29776;SDS011;16677;52.224;7.484;2022-10-16T15:12:41;8.73;;;2.40;;
29776;SDS011;16677;52.224;7.484;2022-10-16T15:17:49;5.63;;;1.93;;
29776;SDS011;16677;52.224;7.484;2022-10-16T15:28:01;4.80;;;1.60;;
29776;SDS011;16677;52.224;7.484;2022-10-16T15:30:30;4.27;;;1.90;;
29776;SDS011;16677;52.224;7.484;2022-10-16T15:32:57;5.37;;;2.07;;
29776;SDS011;16677;52.224;7.484;2022-10-16T15:35:24;7.90;;;2.40;;
29776;SDS011;16677;52.224;7.484;2022-10-16T15:37:53;4.50;;;1.77;;
29776;SDS011;16677;52.224;7.484;2022-10-16T15:40:23;4.37;;;2.43;;
29776;SDS011;16677;52.224;7.484;2022-10-16T15:42:50;6.23;;;2.60;;
29776;SDS011;16677;52.224;7.484;2022-10-16T15:45:17;6.30;;;2.63;;
29776;SDS011;16677;52.224;7.484;2022-10-16T15:47:45;6.13;;;2.03;;
29776;SDS011;16677;52.224;7.484;2022-10-16T15:50:13;7.70;;;2.57;;
29776;SDS011;16677;52.224;7.484;2022-10-16T15:52:42;6.43;;;2.30;;
29776;SDS011;16677;52.224;7.484;2022-10-16T15:55:09;7.03;;;2.37;;
29776;SDS011;16677;52.224;7.484;2022-10-16T15:57:39;4.87;;;2.00;;
29776;SDS011;16677;52.224;7.484;2022-10-16T16:00:10;8.33;;;2.77;;
29776;SDS011;16677;52.224;7.484;2022-10-16T16:02:42;8.23;;;4.07;;
29776;SDS011;16677;52.224;7.484;2022-10-16T16:05:13;15.17;;;7.20;;
29776;SDS011;16677;52.224;7.484;2022-10-16T16:07:40;12.87;;;8.17;;
29776;SDS011;16677;52.224;7.484;2022-10-16T16:10:08;19.03;;;9.00;;
29776;SDS011;16677;52.224;7.484;2022-10-16T16:17:36;8.07;;;4.10;;
29776;SDS011;16677;52.224;7.484;2022-10-16T16:20:03;10.83;;;3.97;;
29776;SDS011;16677;52.224;7.484;2022-10-16T16:22:34;6.13;;;3.07;;
29776;SDS011;16677;52.224;7.484;2022-10-16T16:27:28;9.90;;;3.15;;
29776;SDS011;16677;52.224;7.484;2022-10-16T16:29:56;12.07;;;3.83;;
29776;SDS011;16677;52.224;7.484;2022-10-16T16:32:24;7.93;;;2.80;;
29776;SDS011;16677;52.224;7.484;2022-10-16T16:34:51;10.37;;;3.10;;
29776;SDS011;16677;52.224;7.484;2022-10-16T16:37:18;8.80;;;2.87;;
29776;SDS011;16677;52.224;7.484;2022-10-16T16:39:45;6.97;;;3.20;;
29776;SDS011;16677;52.224;7.484;2022-10-16T16:42:17;9.73;;;3.50;;
29776;SDS011;16677;52.224;7.484;2022-10-16T16:44:45;8.30;;;3.60;;
29776;SDS011;16677;52.224;7.484;2022-10-16T16:49:41;20.35;;;13.95;;
29776;SDS011;16677;52.224;7.484;2022-10-16T16:52:08;15.63;;;10.70;;
29776;SDS011;16677;52.224;7.484;2022-10-16T16:54:35;15.75;;;10.13;;
29776;SDS011;16677;52.224;7.484;2022-10-16T16:57:02;12.90;;;10.85;;
29776;SDS011;16677;52.224;7.484;2022-10-16T16:59:31;19.90;;;12.90;;
29776;SDS011;16677;52.224;7.484;2022-10-16T17:02:01;16.47;;;10.03;;
29776;SDS011;16677;52.224;7.484;2022-10-16T17:04:29;14.33;;;10.17;;
29776;SDS011;16677;52.224;7.484;2022-10-16T17:06:58;16.80;;;10.73;;
29776;SDS011;16677;52.224;7.484;2022-10-16T17:09:25;13.77;;;9.73;;
29776;SDS011;16677;52.224;7.484;2022-10-16T17:11:52;14.70;;;8.57;;
29776;SDS011;16677;52.224;7.484;2022-10-16T17:14:19;11.27;;;7.00;;
29776;SDS011;16677;52.224;7.484;2022-10-16T17:16:46;13.43;;;5.83;;
29776;SDS011;16677;52.224;7.484;2022-10-16T17:46:35;11.70;;;5.47;;
29776;SDS011;16677;52.224;7.484;2022-10-16T17:49:06;7.63;;;4.00;;
29776;SDS011;16677;52.224;7.484;2022-10-16T17:51:35;10.13;;;5.13;;
29776;SDS011;16677;52.224;7.484;2022-10-16T17:54:02;12.23;;;6.00;;
29776;SDS011;16677;52.224;7.484;2022-10-16T17:56:29;15.80;;;7.87;;
29776;SDS011;16677;52.224;7.484;2022-10-16T17:58:58;14.37;;;6.87;;
29776;SDS011;16677;52.224;7.484;2022-10-16T18:01:27;17.03;;;8.43;;
29776;SDS011;16677;52.224;7.484;2022-10-16T18:03:57;12.93;;;6.47;;
29776;SDS011;16677;52.224;7.484;2022-10-16T18:06:27;13.00;;;5.80;;
29776;SDS011;16677;52.224;7.484;2022-10-16T18:08:55;11.97;;;7.20;;
29776;SDS011;16677;52.224;7.484;2022-10-16T18:11:23;10.30;;;7.17;;
29776;SDS011;16677;52.224;7.484;2022-10-16T18:13:50;11.10;;;7.90;;
29776;SDS011;16677;52.224;7.484;2022-10-16T18:16:19;11.87;;;8.00;;
29776;SDS011;16677;52.224;7.484;2022-10-16T18:18:46;13.73;;;6.93;;
29776;SDS011;16677;52.224;7.484;2022-10-16T18:21:14;13.60;;;6.10;;
29776;SDS011;16677;52.224;7.484;2022-10-16T18:23:43;9.90;;;5.03;;
29776;SDS011;16677;52.224;7.484;2022-10-16T18:26:17;9.23;;;4.93;;
29776;SDS011;16677;52.224;7.484;2022-10-16T18:28:44;14.13;;;5.30;;
29776;SDS011;16677;52.224;7.484;2022-10-16T18:31:13;12.20;;;5.20;;
29776;SDS011;16677;52.224;7.484;2022-10-16T18:33:42;12.90;;;5.03;;
29776;SDS011;16677;52.224;7.484;2022-10-16T18:36:20;11.80;;;8.80;;
29776;SDS011;16677;52.224;7.484;2022-10-16T18:38:58;17.10;;;9.17;;
29776;SDS011;16677;52.224;7.484;2022-10-16T18:41:26;13.83;;;6.83;;
29776;SDS011;16677;52.224;7.484;2022-10-16T18:43:53;10.10;;;5.07;;
29776;SDS011;16677;52.224;7.484;2022-10-16T18:46:24;10.57;;;4.73;;
29776;SDS011;16677;52.224;7.484;2022-10-16T18:48:51;9.90;;;5.27;;
29776;SDS011;16677;52.224;7.484;2022-10-16T18:53:50;11.37;;;5.17;;
29776;SDS011;16677;52.224;7.484;2022-10-16T18:56:19;9.00;;;4.37;;
29776;SDS011;16677;52.224;7.484;2022-10-16T18:58:51;6.50;;;4.10;;
29776;SDS011;16677;52.224;7.484;2022-10-16T19:01:50;10.70;;;7.17;;
29776;SDS011;16677;52.224;7.484;2022-10-16T19:12:23;9.63;;;6.50;;
29776;SDS011;16677;52.224;7.484;2022-10-16T19:14:50;10.80;;;6.20;;
29776;SDS011;16677;52.224;7.484;2022-10-16T19:17:23;8.23;;;5.23;;
29776;SDS011;16677;52.224;7.484;2022-10-16T19:19:50;10.03;;;6.00;;
29776;SDS011;16677;52.224;7.484;2022-10-16T19:22:27;10.37;;;6.70;;
29776;SDS011;16677;52.224;7.484;2022-10-16T19:28:26;8.83;;;5.30;;
29776;SDS011;16677;52.224;7.484;2022-10-16T19:30:53;10.83;;;5.37;;
29776;SDS011;16677;52.224;7.484;2022-10-16T19:33:20;10.77;;;5.60;;
29776;SDS011;16677;52.224;7.484;2022-10-16T19:35:47;7.97;;;5.43;;
29776;SDS011;16677;52.224;7.484;2022-10-16T19:38:14;13.10;;;6.07;;
29776;SDS011;16677;52.224;7.484;2022-10-16T19:40:43;8.90;;;4.67;;
29776;SDS011;16677;52.224;7.484;2022-10-16T19:43:10;11.90;;;5.30;;
29776;SDS011;16677;52.224;7.484;2022-10-16T19:45:39;8.27;;;5.07;;
29776;SDS011;16677;52.224;7.484;2022-10-16T19:48:05;8.27;;;4.53;;
29776;SDS011;16677;52.224;7.484;2022-10-16T19:50:33;9.10;;;4.60;;
29776;SDS011;16677;52.224;7.484;2022-10-16T19:53:00;10.17;;;5.03;;
29776;SDS011;16677;52.224;7.484;2022-10-16T19:55:29;10.93;;;6.60;;
29776;SDS011;16677;52.224;7.484;2022-10-16T19:57:56;8.20;;;5.93;;
29776;SDS011;16677;52.224;7.484;2022-10-16T20:00:26;7.93;;;5.80;;
29776;SDS011;16677;52.224;7.484;2022-10-16T20:02:53;7.57;;;5.20;;
29776;SDS011;16677;52.224;7.484;2022-10-16T20:05:23;14.73;;;9.07;;
29776;SDS011;16677;52.224;7.484;2022-10-16T20:07:50;12.37;;;8.50;;
29776;SDS011;16677;52.224;7.484;2022-10-16T20:10:17;13.87;;;7.57;;
29776;SDS011;16677;52.224;7.484;2022-10-16T20:12:44;13.10;;;7.07;;
29776;SDS011;16677;52.224;7.484;2022-10-16T20:15:14;8.80;;;5.90;;